sensor_id;sensor_type;location;lat;lon;timestamp;pressure;altitude;pressure_sealevel;temperature;humidity
21730;BME280;11027;51.030;13.812;2023-09-08T00:01:11;100795.41;;;20.61;65.90
21730;BME280;11027;51.030;13.812;2023-09-08T00:03:36;100788.81;;;20.55;65.90
21730;BME280;11027;51.030;13.812;2023-09-08T00:06:01;100803.38;;;20.50;65.99
21730;BME280;11027;51.030;13.812;2023-09-08T00:08:27;100792.31;;;20.50;65.92
21730;BME280;11027;51.030;13.812;2023-09-08T00:10:52;100792.75;;;20.47;66.20
21730;BME280;11027;51.030;13.812;2023-09-08T00:13:17;100795.38;;;20.42;66.15
21730;BME280;11027;51.030;13.812;2023-09-08T00:15:42;100793.75;;;20.34;66.12
21730;BME280;11027;51.030;13.812;2023-09-08T00:18:08;100799.97;;;20.30;66.34
21730;BME280;11027;51.030;13.812;2023-09-08T00:20:33;100800.66;;;20.25;66.67
21730;BME280;11027;51.030;13.812;2023-09-08T00:22:58;100797.75;;;20.20;66.56
21730;BME280;11027;51.030;13.812;2023-09-08T00:25:23;100802.41;;;20.19;66.76
21730;BME280;11027;51.030;13.812;2023-09-08T00:27:49;100801.19;;;20.15;67.04
21730;BME280;11027;51.030;13.812;2023-09-08T00:30:14;100798.41;;;20.15;66.98
21730;BME280;11027;51.030;13.812;2023-09-08T00:32:39;100798.88;;;20.12;67.24
21730;BME280;11027;51.030;13.812;2023-09-08T00:35:11;100798.50;;;20.09;67.20
21730;BME280;11027;51.030;13.812;2023-09-08T00:37:36;100797.03;;;20.06;67.25
21730;BME280;11027;51.030;13.812;2023-09-08T00:40:01;100797.03;;;20.06;67.45
21730;BME280;11027;51.030;13.812;2023-09-08T00:42:27;100798.72;;;20.07;67.39
21730;BME280;11027;51.030;13.812;2023-09-08T00:44:52;100793.19;;;20.07;67.56
21730;BME280;11027;51.030;13.812;2023-09-08T00:47:17;100801.72;;;20.06;67.39
21730;BME280;11027;51.030;13.812;2023-09-08T00:49:43;100802.84;;;19.98;67.65
21730;BME280;11027;51.030;13.812;2023-09-08T00:52:08;100799.91;;;19.93;67.91
21730;BME280;11027;51.030;13.812;2023-09-08T00:54:33;100798.69;;;19.89;67.65
21730;BME280;11027;51.030;13.812;2023-09-08T00:57:01;100803.81;;;19.85;68.11
21730;BME280;11027;51.030;13.812;2023-09-08T00:59:27;100798.53;;;19.84;67.75
21730;BME280;11027;51.030;13.812;2023-09-08T01:01:52;100800.69;;;19.82;67.78
21730;BME280;11027;51.030;13.812;2023-09-08T01:04:18;100807.47;;;19.79;68.12
21730;BME280;11027;51.030;13.812;2023-09-08T01:06:44;100800.50;;;19.76;68.12
21730;BME280;11027;51.030;13.812;2023-09-08T01:09:10;100809.25;;;19.73;68.18
21730;BME280;11027;51.030;13.812;2023-09-08T01:11:36;100807.53;;;19.72;68.09
21730;BME280;11027;51.030;13.812;2023-09-08T01:14:02;100811.81;;;19.68;68.22
21730;BME280;11027;51.030;13.812;2023-09-08T01:16:27;100801.66;;;19.62;68.35
21730;BME280;11027;51.030;13.812;2023-09-08T01:18:53;100794.88;;;19.58;68.39
21730;BME280;11027;51.030;13.812;2023-09-08T01:27:16;100808.78;;;19.45;68.65
21730;BME280;11027;51.030;13.812;2023-09-08T01:29:44;100806.91;;;19.38;68.23
21730;BME280;11027;51.030;13.812;2023-09-08T01:32:10;100807.59;;;19.34;68.27
21730;BME280;11027;51.030;13.812;2023-09-08T01:34:37;100806.56;;;19.28;68.37
21730;BME280;11027;51.030;13.812;2023-09-08T01:37:04;100804.03;;;19.27;68.16
21730;BME280;11027;51.030;13.812;2023-09-08T01:39:31;100805.31;;;19.24;68.39
21730;BME280;11027;51.030;13.812;2023-09-08T01:41:56;100803.66;;;19.23;68.52
21730;BME280;11027;51.030;13.812;2023-09-08T01:44:22;100798.13;;;19.23;68.46
21730;BME280;11027;51.030;13.812;2023-09-08T01:46:47;100803.66;;;19.23;68.26
21730;BME280;11027;51.030;13.812;2023-09-08T01:49:12;100807.06;;;19.18;68.97
21730;BME280;11027;51.030;13.812;2023-09-08T01:51:37;100804.06;;;19.20;68.85
21730;BME280;11027;51.030;13.812;2023-09-08T01:54:03;100796.88;;;19.19;68.74
21730;BME280;11027;51.030;13.812;2023-09-08T01:56:28;100802.81;;;19.16;68.94
21730;BME280;11027;51.030;13.812;2023-09-08T01:58:53;100795.00;;;19.13;69.10
21730;BME280;11027;51.030;13.812;2023-09-08T02:01:18;100792.66;;;19.10;69.08
21730;BME280;11027;51.030;13.812;2023-09-08T02:03:44;100788.44;;;19.07;68.88
21730;BME280;11027;51.030;13.812;2023-09-08T02:06:09;100798.25;;;19.03;69.08
21730;BME280;11027;51.030;13.812;2023-09-08T02:08:34;100796.75;;;19.01;68.92
21730;BME280;11027;51.030;13.812;2023-09-08T02:10:59;100794.44;;;18.97;69.22
21730;BME280;11027;51.030;13.812;2023-09-08T02:13:25;100792.72;;;18.96;69.03
21730;BME280;11027;51.030;13.812;2023-09-08T02:15:50;100794.88;;;18.94;69.12
21730;BME280;11027;51.030;13.812;2023-09-08T02:18:16;100792.34;;;18.93;69.18
21730;BME280;11027;51.030;13.812;2023-09-08T02:20:41;100786.81;;;18.93;68.74
21730;BME280;11027;51.030;13.812;2023-09-08T02:23:06;100793.41;;;18.92;69.07
21730;BME280;11027;51.030;13.812;2023-09-08T02:25:32;100788.09;;;18.90;68.87
21730;BME280;11027;51.030;13.812;2023-09-08T02:27:57;100789.81;;;18.91;69.07
21730;BME280;11027;51.030;13.812;2023-09-08T02:30:22;100802.16;;;18.89;68.86
21730;BME280;11027;51.030;13.812;2023-09-08T02:32:48;100794.06;;;18.87;69.08
21730;BME280;11027;51.030;13.812;2023-09-08T02:35:13;100792.81;;;18.83;68.77
21730;BME280;11027;51.030;13.812;2023-09-08T02:37:38;100798.56;;;18.82;68.74
21730;BME280;11027;51.030;13.812;2023-09-08T02:40:05;100791.13;;;18.75;68.94
21730;BME280;11027;51.030;13.812;2023-09-08T02:42:30;100796.22;;;18.72;68.78
21730;BME280;11027;51.030;13.812;2023-09-08T02:44:56;100787.31;;;18.70;68.75
21730;BME280;11027;51.030;13.812;2023-09-08T02:47:21;100787.78;;;18.67;68.92
21730;BME280;11027;51.030;13.812;2023-09-08T02:49:46;100799.66;;;18.67;68.78
21730;BME280;11027;51.030;13.812;2023-09-08T02:52:11;100790.13;;;18.63;68.82
21730;BME280;11027;51.030;13.812;2023-09-08T02:54:37;100788.66;;;18.61;68.91
21730;BME280;11027;51.030;13.812;2023-09-08T02:57:02;100792.47;;;18.59;69.09
21730;BME280;11027;51.030;13.812;2023-09-08T02:59:27;100795.44;;;18.58;69.16
21730;BME280;11027;51.030;13.812;2023-09-08T03:01:53;100789.06;;;18.57;69.46
21730;BME280;11027;51.030;13.812;2023-09-08T03:04:18;100783.56;;;18.57;69.06
21730;BME280;11027;51.030;13.812;2023-09-08T03:06:43;100785.69;;;18.55;69.47
21730;BME280;11027;51.030;13.812;2023-09-08T03:09:08;100775.09;;;18.52;69.34
21730;BME280;11027;51.030;13.812;2023-09-08T03:11:34;100785.50;;;18.50;69.55
21730;BME280;11027;51.030;13.812;2023-09-08T03:13:59;100771.94;;;18.49;69.36
21730;BME280;11027;51.030;13.812;2023-09-08T03:16:24;100770.22;;;18.48;69.68
21730;BME280;11027;51.030;13.812;2023-09-08T03:18:50;100768.75;;;18.45;69.31
21730;BME280;11027;51.030;13.812;2023-09-08T03:21:15;100762.59;;;18.43;69.39
21730;BME280;11027;51.030;13.812;2023-09-08T03:23:42;100765.81;;;18.40;69.72
21730;BME280;11027;51.030;13.812;2023-09-08T03:26:08;100759.00;;;18.36;69.72
21730;BME280;11027;51.030;13.812;2023-09-08T03:28:35;100764.56;;;18.29;69.98
21730;BME280;11027;51.030;13.812;2023-09-08T03:31:01;100760.34;;;18.27;70.01
21730;BME280;11027;51.030;13.812;2023-09-08T03:33:26;100762.47;;;18.25;69.95
21730;BME280;11027;51.030;13.812;2023-09-08T03:35:52;100757.16;;;18.23;70.13
21730;BME280;11027;51.030;13.812;2023-09-08T03:38:17;100769.47;;;18.21;70.27
21730;BME280;11027;51.030;13.812;2023-09-08T03:40:42;100767.13;;;18.17;69.99
21730;BME280;11027;51.030;13.812;2023-09-08T03:43:07;100762.50;;;18.18;70.23
21730;BME280;11027;51.030;13.812;2023-09-08T03:45:33;100757.19;;;18.16;70.19
21730;BME280;11027;51.030;13.812;2023-09-08T03:47:58;100759.72;;;18.11;70.33
21730;BME280;11027;51.030;13.812;2023-09-08T03:50:23;100757.63;;;18.07;70.03
21730;BME280;11027;51.030;13.812;2023-09-08T03:52:49;100755.31;;;17.97;70.26
21730;BME280;11027;51.030;13.812;2023-09-08T03:55:15;100750.66;;;17.91;70.38
21730;BME280;11027;51.030;13.812;2023-09-08T03:57:40;100756.63;;;17.88;70.16
21730;BME280;11027;51.030;13.812;2023-09-08T04:00:06;100760.41;;;17.87;70.51
21730;BME280;11027;51.030;13.812;2023-09-08T04:02:32;100757.25;;;17.83;70.61
21730;BME280;11027;51.030;13.812;2023-09-08T04:04:58;100751.31;;;17.79;70.69
21730;BME280;11027;51.030;13.812;2023-09-08T04:07:23;100757.66;;;17.73;70.74
21730;BME280;11027;51.030;13.812;2023-09-08T04:09:48;100750.22;;;17.67;71.21
21730;BME280;11027;51.030;13.812;2023-09-08T04:12:14;100757.00;;;17.65;71.26
21730;BME280;11027;51.030;13.812;2023-09-08T04:14:39;100756.59;;;17.61;71.45
21730;BME280;11027;51.030;13.812;2023-09-08T04:17:04;100753.19;;;17.59;71.49
21730;BME280;11027;51.030;13.812;2023-09-08T04:19:30;100758.06;;;17.57;71.47
21730;BME280;11027;51.030;13.812;2023-09-08T04:21:55;100760.84;;;17.57;71.38
21730;BME280;11027;51.030;13.812;2023-09-08T04:24:20;100760.84;;;17.57;71.33
21730;BME280;11027;51.030;13.812;2023-09-08T04:26:46;100764.66;;;17.56;71.43
21730;BME280;11027;51.030;13.812;2023-09-08T04:29:11;100760.00;;;17.56;71.46
21730;BME280;11027;51.030;13.812;2023-09-08T04:31:36;100767.41;;;17.56;71.71
21730;BME280;11027;51.030;13.812;2023-09-08T04:34:02;100760.84;;;17.57;71.70
21730;BME280;11027;51.030;13.812;2023-09-08T04:36:27;100775.25;;;17.59;71.82
21730;BME280;11027;51.030;13.812;2023-09-08T04:38:52;100764.84;;;17.61;72.07
21730;BME280;11027;51.030;13.812;2023-09-08T04:41:18;100765.94;;;17.60;71.91
21730;BME280;11027;51.030;13.812;2023-09-08T04:43:43;100773.56;;;17.58;72.11
21730;BME280;11027;51.030;13.812;2023-09-08T04:46:08;100769.97;;;17.57;72.34
21730;BME280;11027;51.030;13.812;2023-09-08T04:48:33;100774.59;;;17.57;72.28
21730;BME280;11027;51.030;13.812;2023-09-08T04:50:59;100777.34;;;17.57;72.10
21730;BME280;11027;51.030;13.812;2023-09-08T04:53:24;100772.28;;;17.54;72.46
21730;BME280;11027;51.030;13.812;2023-09-08T04:55:49;100778.22;;;17.51;72.51
21730;BME280;11027;51.030;13.812;2023-09-08T04:58:15;100772.06;;;17.49;72.72
21730;BME280;11027;51.030;13.812;2023-09-08T05:00:40;100773.97;;;17.48;72.40
21730;BME280;11027;51.030;13.812;2023-09-08T05:03:05;100782.44;;;17.47;72.64
21730;BME280;11027;51.030;13.812;2023-09-08T05:05:32;100781.16;;;17.43;72.90
21730;BME280;11027;51.030;13.812;2023-09-08T05:07:57;100786.69;;;17.43;72.95
21730;BME280;11027;51.030;13.812;2023-09-08T05:10:23;100786.69;;;17.43;73.23
21730;BME280;11027;51.030;13.812;2023-09-08T05:12:49;100786.69;;;17.43;73.32
21730;BME280;11027;51.030;13.812;2023-09-08T05:15:15;100784.78;;;17.43;73.29
21730;BME280;11027;51.030;13.812;2023-09-08T05:17:41;100783.72;;;17.44;73.46
21730;BME280;11027;51.030;13.812;2023-09-08T05:20:07;100776.94;;;17.47;73.36
21730;BME280;11027;51.030;13.812;2023-09-08T05:22:32;100784.56;;;17.45;73.70
21730;BME280;11027;51.030;13.812;2023-09-08T05:24:58;100779.06;;;17.45;73.73
21730;BME280;11027;51.030;13.812;2023-09-08T05:27:23;100785.44;;;17.45;73.63
21730;BME280;11027;51.030;13.812;2023-09-08T05:29:48;100778.66;;;17.48;73.84
21730;BME280;11027;51.030;13.812;2023-09-08T05:32:14;100794.09;;;17.49;73.64
21730;BME280;11027;51.030;13.812;2023-09-08T05:34:39;100798.56;;;17.50;74.25
21730;BME280;11027;51.030;13.812;2023-09-08T05:37:04;100793.06;;;17.50;73.97
21730;BME280;11027;51.030;13.812;2023-09-08T05:39:30;100793.69;;;17.52;74.16
21730;BME280;11027;51.030;13.812;2023-09-08T05:41:55;100793.91;;;17.50;73.64
21730;BME280;11027;51.030;13.812;2023-09-08T05:44:20;100790.94;;;17.52;74.09
21730;BME280;11027;51.030;13.812;2023-09-08T05:46:45;100790.50;;;17.55;73.99
21730;BME280;11027;51.030;13.812;2023-09-08T05:49:11;100797.72;;;17.56;73.60
21730;BME280;11027;51.030;13.812;2023-09-08T05:51:36;100803.03;;;17.57;73.98
21730;BME280;11027;51.030;13.812;2023-09-08T05:54:01;100795.59;;;17.58;73.64
21730;BME280;11027;51.030;13.812;2023-09-08T05:56:31;100796.44;;;17.58;73.71
21730;BME280;11027;51.030;13.812;2023-09-08T05:58:56;100791.78;;;17.59;73.96
21730;BME280;11027;51.030;13.812;2023-09-08T06:01:22;100794.13;;;17.62;73.67
21730;BME280;11027;51.030;13.812;2023-09-08T06:03:47;100788.16;;;17.65;73.76
21730;BME280;11027;51.030;13.812;2023-09-08T06:06:12;100786.69;;;17.69;73.61
21730;BME280;11027;51.030;13.812;2023-09-08T06:08:38;100779.03;;;17.71;73.64
21730;BME280;11027;51.030;13.812;2023-09-08T06:11:03;100778.63;;;17.74;73.39
21730;BME280;11027;51.030;13.812;2023-09-08T06:13:29;100781.63;;;17.79;73.60
21730;BME280;11027;51.030;13.812;2023-09-08T06:15:54;100782.91;;;17.84;73.78
21730;BME280;11027;51.030;13.812;2023-09-08T06:18:19;100780.34;;;17.89;73.76
21730;BME280;11027;51.030;13.812;2023-09-08T06:20:46;100772.50;;;17.92;73.85
21730;BME280;11027;51.030;13.812;2023-09-08T06:23:11;100777.38;;;17.97;73.80
21730;BME280;11027;51.030;13.812;2023-09-08T06:25:36;100770.34;;;18.01;73.73
21730;BME280;11027;51.030;13.812;2023-09-08T06:28:02;100767.81;;;18.06;73.83
21730;BME280;11027;51.030;13.812;2023-09-08T06:30:27;100764.63;;;18.09;74.14
21730;BME280;11027;51.030;13.812;2023-09-08T06:32:52;100767.16;;;18.11;74.60
21730;BME280;11027;51.030;13.812;2023-09-08T06:35:17;100770.34;;;18.14;74.76
21730;BME280;11027;51.030;13.812;2023-09-08T06:37:43;100763.34;;;18.18;74.74
21730;BME280;11027;51.030;13.812;2023-09-08T06:40:08;100770.09;;;18.23;74.98
21730;BME280;11027;51.030;13.812;2023-09-08T06:42:33;100771.38;;;18.27;74.95
21730;BME280;11027;51.030;13.812;2023-09-08T06:44:59;100764.97;;;18.33;74.86
21730;BME280;11027;51.030;13.812;2023-09-08T06:47:25;100769.63;;;18.39;74.89
21730;BME280;11027;51.030;13.812;2023-09-08T06:49:50;100770.66;;;18.45;74.69
21730;BME280;11027;51.030;13.812;2023-09-08T06:52:17;100770.00;;;18.49;74.79
21730;BME280;11027;51.030;13.812;2023-09-08T06:54:42;100772.97;;;18.54;74.45
21730;BME280;11027;51.030;13.812;2023-09-08T06:57:07;100771.47;;;18.58;74.59
21730;BME280;11027;51.030;13.812;2023-09-08T06:59:32;100771.63;;;18.64;74.50
21730;BME280;11027;51.030;13.812;2023-09-08T07:01:57;100775.44;;;18.69;74.12
21730;BME280;11027;51.030;13.812;2023-09-08T07:04:23;100771.19;;;18.73;74.36
21730;BME280;11027;51.030;13.812;2023-09-08T07:06:48;100771.59;;;18.77;74.35
21730;BME280;11027;51.030;13.812;2023-09-08T07:09:15;100772.88;;;18.81;74.30
21730;BME280;11027;51.030;13.812;2023-09-08T07:11:40;100768.59;;;18.85;74.14
21730;BME280;11027;51.030;13.812;2023-09-08T07:14:05;100766.00;;;18.90;74.05
21730;BME280;11027;51.030;13.812;2023-09-08T07:16:31;100763.44;;;18.95;73.69
21730;BME280;11027;51.030;13.812;2023-09-08T07:18:56;100766.38;;;19.01;73.98
21730;BME280;11027;51.030;13.812;2023-09-08T07:21:21;100766.56;;;19.06;73.47
21730;BME280;11027;51.030;13.812;2023-09-08T07:23:46;100765.06;;;19.10;73.55
21730;BME280;11027;51.030;13.812;2023-09-08T07:26:12;100762.47;;;19.15;73.02
21730;BME280;11027;51.030;13.812;2023-09-08T07:28:37;100767.13;;;19.21;72.86
21730;BME280;11027;51.030;13.812;2023-09-08T07:31:04;100764.09;;;19.29;72.82
21730;BME280;11027;51.030;13.812;2023-09-08T07:33:29;100767.41;;;19.38;72.77
21730;BME280;11027;51.030;13.812;2023-09-08T07:35:55;100765.88;;;19.42;72.35
21730;BME280;11027;51.030;13.812;2023-09-08T07:38:20;100760.75;;;19.46;71.98
21730;BME280;11027;51.030;13.812;2023-09-08T07:40:45;100759.47;;;19.48;71.85
21730;BME280;11027;51.030;13.812;2023-09-08T07:43:11;100769.19;;;19.51;71.77
21730;BME280;11027;51.030;13.812;2023-09-08T07:45:36;100762.16;;;19.55;71.63
21730;BME280;11027;51.030;13.812;2023-09-08T07:48:01;100762.56;;;19.58;72.01
21730;BME280;11027;51.030;13.812;2023-09-08T07:50:28;100762.97;;;19.62;71.83
21730;BME280;11027;51.030;13.812;2023-09-08T07:52:55;100759.72;;;19.65;71.70
21730;BME280;11027;51.030;13.812;2023-09-08T07:55:21;100759.28;;;19.68;71.81
21730;BME280;11027;51.030;13.812;2023-09-08T07:57:52;100763.31;;;19.72;72.03
21730;BME280;11027;51.030;13.812;2023-09-08T08:00:18;100761.78;;;19.76;71.78
21730;BME280;11027;51.030;13.812;2023-09-08T08:02:47;100761.09;;;19.81;71.83
21730;BME280;11027;51.030;13.812;2023-09-08T08:05:12;100755.97;;;19.85;71.50
21730;BME280;11027;51.030;13.812;2023-09-08T08:07:39;100758.91;;;19.90;71.56
21730;BME280;11027;51.030;13.812;2023-09-08T08:10:05;100767.34;;;19.95;71.70
21730;BME280;11027;51.030;13.812;2023-09-08T08:12:31;100770.28;;;20.00;71.57
21730;BME280;11027;51.030;13.812;2023-09-08T08:14:56;100758.75;;;20.03;71.13
21730;BME280;11027;51.030;13.812;2023-09-08T08:17:21;100763.38;;;20.09;71.09
21730;BME280;11027;51.030;13.812;2023-09-08T08:19:47;100759.06;;;20.13;70.81
21730;BME280;11027;51.030;13.812;2023-09-08T08:22:12;100763.69;;;20.19;70.74
21730;BME280;11027;51.030;13.812;2023-09-08T08:24:37;100761.09;;;20.25;70.48
21730;BME280;11027;51.030;13.812;2023-09-08T08:27:03;100753.78;;;20.30;70.70
21730;BME280;11027;51.030;13.812;2023-09-08T08:29:29;100752.88;;;20.36;70.30
21730;BME280;11027;51.030;13.812;2023-09-08T08:31:54;100746.41;;;20.43;70.44
21730;BME280;11027;51.030;13.812;2023-09-08T08:34:20;100751.84;;;20.49;70.22
21730;BME280;11027;51.030;13.812;2023-09-08T08:36:45;100743.72;;;20.54;70.28
21730;BME280;11027;51.030;13.812;2023-09-08T08:39:10;100742.81;;;20.61;70.33
21730;BME280;11027;51.030;13.812;2023-09-08T08:41:35;100740.16;;;20.66;70.54
21730;BME280;11027;51.030;13.812;2023-09-08T08:44:06;100742.00;;;20.72;70.23
21730;BME280;11027;51.030;13.812;2023-09-08T08:46:31;100745.53;;;20.79;69.88
21730;BME280;11027;51.030;13.812;2023-09-08T08:48:59;100742.88;;;20.84;69.80
21730;BME280;11027;51.030;13.812;2023-09-08T08:51:26;100733.03;;;20.88;69.14
21730;BME280;11027;51.030;13.812;2023-09-08T08:53:53;100736.19;;;20.92;68.78
21730;BME280;11027;51.030;13.812;2023-09-08T08:56:20;100732.69;;;20.96;68.46
21730;BME280;11027;51.030;13.812;2023-09-08T08:58:45;100731.16;;;21.01;68.47
21730;BME280;11027;51.030;13.812;2023-09-08T09:01:11;100737.94;;;21.05;68.31
21730;BME280;11027;51.030;13.812;2023-09-08T09:03:39;100729.28;;;21.13;67.80
21730;BME280;11027;51.030;13.812;2023-09-08T09:06:05;100726.00;;;21.16;67.58
21730;BME280;11027;51.030;13.812;2023-09-08T09:08:31;100727.22;;;21.20;67.57
21730;BME280;11027;51.030;13.812;2023-09-08T09:10:56;100724.84;;;21.24;67.65
21730;BME280;11027;51.030;13.812;2023-09-08T09:13:21;100723.88;;;21.30;67.68
21730;BME280;11027;51.030;13.812;2023-09-08T09:15:49;100729.56;;;21.35;67.48
21730;BME280;11027;51.030;13.812;2023-09-08T09:18:14;100726.06;;;21.40;67.16
21730;BME280;11027;51.030;13.812;2023-09-08T09:20:40;100717.19;;;21.49;66.93
21730;BME280;11027;51.030;13.812;2023-09-08T09:23:06;100707.66;;;21.57;66.93
21730;BME280;11027;51.030;13.812;2023-09-08T09:25:31;100705.03;;;21.62;66.64
21730;BME280;11027;51.030;13.812;2023-09-08T09:27:59;100711.78;;;21.66;66.44
21730;BME280;11027;51.030;13.812;2023-09-08T09:30:25;100704.91;;;21.69;66.35
21730;BME280;11027;51.030;13.812;2023-09-08T09:33:04;100702.50;;;21.72;65.90
21730;BME280;11027;51.030;13.812;2023-09-08T09:35:53;100700.91;;;21.76;65.66
21730;BME280;11027;51.030;13.812;2023-09-08T09:38:20;100702.13;;;21.81;65.83
21730;BME280;11027;51.030;13.812;2023-09-08T09:40:47;100697.78;;;21.85;65.55
21730;BME280;11027;51.030;13.812;2023-09-08T09:43:14;100704.53;;;21.89;65.13
21730;BME280;11027;51.030;13.812;2023-09-08T09:45:41;100695.81;;;21.97;63.88
21730;BME280;11027;51.030;13.812;2023-09-08T09:48:08;100702.09;;;22.04;62.30
21730;BME280;11027;51.030;13.812;2023-09-08T09:50:39;100690.63;;;22.12;61.52
21730;BME280;11027;51.030;13.812;2023-09-08T09:53:09;100688.91;;;22.23;60.39
21730;BME280;11027;51.030;13.812;2023-09-08T09:55:37;100688.31;;;22.33;59.48
21730;BME280;11027;51.030;13.812;2023-09-08T09:58:04;100690.69;;;22.41;58.49
21730;BME280;11027;51.030;13.812;2023-09-08T10:00:30;100690.22;;;22.44;58.07
21730;BME280;11027;51.030;13.812;2023-09-08T10:02:57;100686.34;;;22.45;57.86
21730;BME280;11027;51.030;13.812;2023-09-08T10:05:26;100685.84;;;22.48;57.47
21730;BME280;11027;51.030;13.812;2023-09-08T10:07:51;100691.41;;;22.48;57.20
21730;BME280;11027;51.030;13.812;2023-09-08T10:10:18;100695.25;;;22.47;57.12
21730;BME280;11027;51.030;13.812;2023-09-08T10:12:44;100689.22;;;22.50;56.42
21730;BME280;11027;51.030;13.812;2023-09-08T10:15:11;100689.31;;;22.55;54.87
21730;BME280;11027;51.030;13.812;2023-09-08T10:17:37;100686.06;;;22.59;55.03
21730;BME280;11027;51.030;13.812;2023-09-08T10:20:04;100681.09;;;22.61;55.28
21730;BME280;11027;51.030;13.812;2023-09-08T10:22:38;100694.97;;;22.61;55.66
21730;BME280;11027;51.030;13.812;2023-09-08T10:25:05;100686.97;;;22.64;55.75
21730;BME280;11027;51.030;13.812;2023-09-08T10:27:31;100682.34;;;22.70;55.29
21730;BME280;11027;51.030;13.812;2023-09-08T10:30:00;100679.44;;;22.76;54.59
21730;BME280;11027;51.030;13.812;2023-09-08T10:32:26;100676.50;;;22.83;54.23
21730;BME280;11027;51.030;13.812;2023-09-08T10:34:53;100674.31;;;22.85;53.92
21730;BME280;11027;51.030;13.812;2023-09-08T10:37:23;100672.38;;;22.86;54.28
21730;BME280;11027;51.030;13.812;2023-09-08T10:39:54;100674.50;;;22.95;52.71
21730;BME280;11027;51.030;13.812;2023-09-08T10:42:21;100669.88;;;23.01;52.35
21730;BME280;11027;51.030;13.812;2023-09-08T10:47:25;100665.53;;;23.05;51.99
21730;BME280;11027;51.030;13.812;2023-09-08T10:49:51;100648.09;;;23.10;52.00
21730;BME280;11027;51.030;13.812;2023-09-08T10:52:21;100659.81;;;23.12;52.25
21730;BME280;11027;51.030;13.812;2023-09-08T10:54:51;100656.03;;;23.18;52.14
21730;BME280;11027;51.030;13.812;2023-09-08T10:57:19;100653.34;;;23.23;52.16
21730;BME280;11027;51.030;13.812;2023-09-08T10:59:58;100643.13;;;23.29;51.35
21730;BME280;11027;51.030;13.812;2023-09-08T11:02:41;100645.22;;;23.39;51.19
21730;BME280;11027;51.030;13.812;2023-09-08T11:05:13;100654.00;;;23.47;51.28
21730;BME280;11027;51.030;13.812;2023-09-08T11:07:40;100651.63;;;23.56;51.80
21730;BME280;11027;51.030;13.812;2023-09-08T11:10:07;100649.56;;;23.68;51.92
21730;BME280;11027;51.030;13.812;2023-09-08T11:12:33;100646.72;;;23.80;50.85
21730;BME280;11027;51.030;13.812;2023-09-08T11:15:02;100648.22;;;23.88;49.84
21730;BME280;11027;51.030;13.812;2023-09-08T11:17:33;100657.28;;;24.00;49.68
21730;BME280;11027;51.030;13.812;2023-09-08T11:20:00;100652.69;;;24.11;50.03
21730;BME280;11027;51.030;13.812;2023-09-08T11:22:26;100645.88;;;24.24;50.26
21730;BME280;11027;51.030;13.812;2023-09-08T11:24:52;100652.41;;;24.34;48.60
21730;BME280;11027;51.030;13.812;2023-09-08T11:27:19;100646.63;;;24.41;47.89
21730;BME280;11027;51.030;13.812;2023-09-08T11:29:44;100645.59;;;24.47;48.22
21730;BME280;11027;51.030;13.812;2023-09-08T11:32:10;100639.00;;;24.53;47.49
21730;BME280;11027;51.030;13.812;2023-09-08T11:34:36;100634.06;;;24.61;47.20
21730;BME280;11027;51.030;13.812;2023-09-08T11:37:12;100633.03;;;24.67;47.17
21730;BME280;11027;51.030;13.812;2023-09-08T11:39:42;100631.41;;;24.76;47.39
21730;BME280;11027;51.030;13.812;2023-09-08T11:42:08;100628.16;;;24.84;47.04
21730;BME280;11027;51.030;13.812;2023-09-08T11:44:35;100637.47;;;24.95;46.98
21730;BME280;11027;51.030;13.812;2023-09-08T11:47:02;100633.63;;;25.01;46.89
21730;BME280;11027;51.030;13.812;2023-09-08T11:49:33;100624.44;;;25.06;46.80
21730;BME280;11027;51.030;13.812;2023-09-08T11:51:59;100621.72;;;25.11;46.40
21730;BME280;11027;51.030;13.812;2023-09-08T11:54:24;100623.38;;;25.12;46.86
21730;BME280;11027;51.030;13.812;2023-09-08T11:56:50;100620.66;;;25.17;47.24
21730;BME280;11027;51.030;13.812;2023-09-08T11:59:15;100617.69;;;25.29;47.29
21730;BME280;11027;51.030;13.812;2023-09-08T12:01:41;100624.72;;;25.37;47.42
21730;BME280;11027;51.030;13.812;2023-09-08T12:04:06;100613.63;;;25.47;47.36
21730;BME280;11027;51.030;13.812;2023-09-08T12:06:42;100619.53;;;25.55;47.40
21730;BME280;11027;51.030;13.812;2023-09-08T12:09:07;100609.53;;;25.65;47.53
21730;BME280;11027;51.030;13.812;2023-09-08T12:11:33;100608.75;;;25.74;47.51
21730;BME280;11027;51.030;13.812;2023-09-08T12:14:01;100617.75;;;25.82;46.88
21730;BME280;11027;51.030;13.812;2023-09-08T12:16:26;100609.13;;;25.88;46.89
21730;BME280;11027;51.030;13.812;2023-09-08T12:18:51;100607.22;;;25.94;46.16
21730;BME280;11027;51.030;13.812;2023-09-08T12:21:17;100606.13;;;26.00;46.35
21730;BME280;11027;51.030;13.812;2023-09-08T12:23:49;100602.81;;;26.08;46.13
21730;BME280;11027;51.030;13.812;2023-09-08T12:26:15;100600.00;;;26.08;46.45
21730;BME280;11027;51.030;13.812;2023-09-08T12:28:42;100590.84;;;26.18;46.30
21730;BME280;11027;51.030;13.812;2023-09-08T12:31:08;100589.16;;;26.27;45.94
21730;BME280;11027;51.030;13.812;2023-09-08T12:33:34;100584.47;;;26.38;45.94
21730;BME280;11027;51.030;13.812;2023-09-08T12:35:59;100585.03;;;26.45;45.72
21730;BME280;11027;51.030;13.812;2023-09-08T12:38:30;100578.31;;;26.51;45.93
21730;BME280;11027;51.030;13.812;2023-09-08T12:40:57;100582.03;;;26.62;45.03
21730;BME280;11027;51.030;13.812;2023-09-08T12:43:22;100571.66;;;26.68;44.76